Time;durP1;ratioP1;P1;durP2;ratioP2;P2;SDS_P1;SDS_P2;PMS_P1;PMS_P2;Temp;Humidity;BMP_temperature;BMP_pressure;BME280_temperature;BME280_humidity;BME280_pressure;Samples;Min_cycle;Max_cycle;Signal;HPM_P1;HPM_P2
2023/04/15 00:03:02;;;;;;;4.30;2.80;;;;;;;21.23;32.88;94281.22;6207257;28;108872;-65
2023/04/15 00:06:05;;;;;;;2.93;2.50;;;;;;;21.23;32.95;94278.56;6200513;28;108970;-65
2023/04/15 00:09:10;;;;;;;3.27;2.50;;;;;;;21.24;33.12;94279.34;6228593;28;108873;-68
2023/04/15 00:12:13;;;;;;;2.60;2.40;;;;;;;21.24;33.25;94280.13;6217983;27;108981;-65
2023/04/15 00:15:16;;;;;;;2.80;2.40;;;;;;;21.23;33.21;94283.09;6211931;28;109027;-65
2023/04/15 00:18:19;;;;;;;3.00;2.33;;;;;;;21.23;33.19;94299.06;6221051;28;109024;-70
2023/04/15 00:21:22;;;;;;;2.63;2.43;;;;;;;21.24;33.23;94296.09;6234629;27;108976;-65
2023/04/15 00:24:28;;;;;;;3.47;2.90;;;;;;;21.24;33.01;94319.25;6225199;27;108825;-65
2023/04/15 00:27:31;;;;;;;2.57;2.23;;;;;;;21.23;33.11;94318.47;6202382;28;108920;-63
2023/04/15 00:30:34;;;;;;;2.90;2.57;;;;;;;21.23;33.23;94301.72;6210406;28;109010;-67
2023/04/15 00:33:37;;;;;;;2.90;2.30;;;;;;;21.20;32.89;94303.16;6212585;28;108933;-64
2023/04/15 00:36:40;;;;;;;2.27;2.07;;;;;;;21.18;33.31;94303.47;6210793;28;108896;-66
2023/04/15 00:39:45;;;;;;;2.87;2.53;;;;;;;21.18;32.94;94298.16;6199147;28;108957;-65
2023/04/15 00:42:48;;;;;;;3.13;2.70;;;;;;;21.19;33.08;94298.94;6219643;28;109137;-65
2023/04/15 00:45:53;;;;;;;3.20;2.30;;;;;;;21.16;33.15;94302.19;6220611;28;109323;-65
2023/04/15 00:48:56;;;;;;;4.00;2.63;;;;;;;21.19;32.81;94325.53;6234886;27;108940;-65
2023/04/15 00:52:00;;;;;;;2.63;2.43;;;;;;;21.18;32.97;94313.31;6223597;27;108905;-65
2023/04/15 00:55:05;;;;;;;2.50;2.30;;;;;;;21.18;32.89;94330.06;6234446;28;108795;-65
2023/04/15 00:58:08;;;;;;;2.40;2.20;;;;;;;21.17;32.98;94311.75;6221985;27;108845;-65
2023/04/15 01:01:11;;;;;;;2.97;2.53;;;;;;;21.17;32.88;94315.22;6224535;27;108874;-65
2023/04/15 01:04:15;;;;;;;2.63;2.43;;;;;;;21.17;32.91;94325.84;6227767;28;109487;-65
2023/04/15 01:07:19;;;;;;;2.50;1.90;;;;;;;21.16;33.22;94326.91;6235025;28;108988;-64
2023/04/15 01:10:23;;;;;;;2.33;2.13;;;;;;;21.16;32.78;94326.13;6233178;27;108874;-64
2023/04/15 01:13:27;;;;;;;2.37;2.00;;;;;;;21.16;32.79;94318.16;6213612;27;109449;-64
2023/04/15 01:16:31;;;;;;;2.30;2.10;;;;;;;21.14;33.05;94317.69;6230869;27;108985;-66
2023/04/15 01:19:34;;;;;;;2.87;2.47;;;;;;;21.15;33.19;94316.59;6209870;28;108918;-65
2023/04/15 01:22:38;;;;;;;2.40;2.20;;;;;;;21.12;33.22;94303.94;6211454;28;108874;-64
2023/04/15 01:25:44;;;;;;;2.20;2.00;;;;;;;21.12;32.89;94301.28;6212022;28;108916;-64
2023/04/15 01:28:47;;;;;;;2.50;2.30;;;;;;;21.11;32.86;94305.03;6234600;27;108870;-65
2023/04/15 01:31:51;;;;;;;2.70;2.20;;;;;;;21.12;33.01;94299.41;6218184;27;108872;-65
2023/04/15 01:34:55;;;;;;;2.63;2.00;;;;;;;21.11;33.03;94310.34;6231612;27;108869;-65
2023/04/15 01:38:04;;;;;;;2.27;2.07;;;;;;;21.09;32.94;94312.56;6226717;27;109222;-65
2023/04/15 01:41:08;;;;;;;2.67;2.20;;;;;;;21.10;33.02;94316.78;6233861;27;108987;-65
2023/04/15 01:44:11;;;;;;;2.47;2.00;;;;;;;21.08;32.94;94308.34;6229517;27;108937;-65
2023/04/15 01:47:14;;;;;;;2.33;2.13;;;;;;;21.08;33.18;94303.00;6217955;27;109852;-65
2023/04/15 01:50:19;;;;;;;2.40;2.20;;;;;;;21.09;32.70;94309.91;6215393;27;108975;-64
2023/04/15 01:53:22;;;;;;;3.20;2.30;;;;;;;21.08;32.93;94303.00;6237780;28;108516;-66
2023/04/15 01:56:26;;;;;;;3.30;2.40;;;;;;;21.07;32.87;94304.13;6228742;27;109528;-65
2023/04/15 01:59:31;;;;;;;2.60;2.40;;;;;;;21.09;32.96;94308.00;6227071;27;108982;-65
2023/04/15 02:02:34;;;;;;;3.23;2.60;;;;;;;21.08;32.84;94313.66;6234455;27;109223;-65
2023/04/15 02:05:38;;;;;;;2.70;2.50;;;;;;;21.07;33.04;94309.44;6237737;27;109021;-66
2023/04/15 02:08:41;;;;;;;2.97;2.70;;;;;;;21.07;32.89;94315.53;6204440;28;108948;-66
2023/04/15 02:11:45;;;;;;;6.00;2.50;;;;;;;21.05;32.71;94320.41;6204370;28;108951;-65
2023/04/15 02:14:48;;;;;;;3.30;3.00;;;;;;;21.05;33.08;94324.94;6238653;28;108842;-65
2023/04/15 02:17:54;;;;;;;3.27;2.97;;;;;;;21.05;32.85;94323.06;6238514;27;108813;-65
2023/04/15 02:20:57;;;;;;;3.37;3.07;;;;;;;21.05;33.04;94319.63;6232873;27;108970;-64
2023/04/15 02:24:01;;;;;;;3.77;3.47;;;;;;;21.03;32.85;94311.91;6219093;27;108955;-66
2023/04/15 02:27:05;;;;;;;3.80;3.50;;;;;;;21.06;33.24;94313.19;6225318;28;110003;-66
2023/04/15 02:30:09;;;;;;;3.80;3.43;;;;;;;21.02;33.10;94293.63;6224363;28;108865;-66
2023/04/15 02:33:12;;;;;;;4.20;3.80;;;;;;;21.03;33.23;94311.16;6216660;27;109101;-68
2023/04/15 02:36:15;;;;;;;6.10;4.40;;;;;;;21.01;33.22;94297.38;6219617;27;108882;-66
2023/04/15 02:39:18;;;;;;;4.17;3.87;;;;;;;21.03;33.15;94295.19;6213042;28;108957;-66
2023/04/15 02:42:26;;;;;;;4.20;3.87;;;;;;;21.01;33.26;94297.38;6212945;28;108850;-66
2023/04/15 02:45:29;;;;;;;4.17;3.87;;;;;;;21.02;33.21;94306.91;6205704;28;109096;-66
2023/04/15 02:48:32;;;;;;;4.60;4.20;;;;;;;21.02;33.24;94298.94;6213384;27;109105;-66
2023/04/15 02:51:35;;;;;;;4.53;4.10;;;;;;;20.98;33.25;94314.72;6212772;28;108893;-66
2023/04/15 02:54:38;;;;;;;5.23;4.83;;;;;;;21.00;33.08;94306.44;6208686;28;108925;-64
2023/04/15 02:57:43;;;;;;;4.57;4.27;;;;;;;21.00;33.29;94311.75;6217360;28;108896;-64
2023/04/15 03:00:46;;;;;;;4.57;4.20;;;;;;;20.98;33.18;94319.28;6211917;28;108900;-65
2023/04/15 03:03:49;;;;;;;5.50;4.87;;;;;;;20.97;33.24;94309.72;6212116;28;108899;-65
2023/04/15 03:06:53;;;;;;;5.40;4.90;;;;;;;20.96;33.34;94324.91;6211642;28;109156;-65
2023/04/15 03:09:56;;;;;;;5.83;4.40;;;;;;;20.98;32.93;94327.25;6229988;27;109375;-66
2023/04/15 03:13:01;;;;;;;5.47;4.97;;;;;;;20.97;33.08;94338.97;6231831;27;108985;-65
2023/04/15 03:16:04;;;;;;;4.87;4.47;;;;;;;20.96;33.03;94324.91;6215500;28;108812;-65
2023/04/15 03:19:07;;;;;;;4.83;4.43;;;;;;;20.92;33.05;94332.75;6202927;28;109788;-66
2023/04/15 03:22:10;;;;;;;4.70;4.30;;;;;;;20.92;33.14;94342.59;6214525;28;108935;-64
2023/04/15 03:25:13;;;;;;;5.07;4.67;;;;;;;20.94;33.17;94348.38;6220112;28;108912;-66
2023/04/15 03:28:18;;;;;;;5.20;4.80;;;;;;;20.91;32.78;94341.81;6213012;28;108974;-65
2023/04/15 03:31:21;;;;;;;5.30;4.90;;;;;;;20.94;32.93;94348.38;6209558;28;109167;-66
2023/04/15 03:34:24;;;;;;;6.47;5.80;;;;;;;20.93;32.96;94365.44;6214210;27;110326;-65
2023/04/15 03:37:27;;;;;;;5.30;4.83;;;;;;;20.91;33.14;94363.09;6232975;28;109343;-66
2023/04/15 03:40:30;;;;;;;5.53;5.13;;;;;;;20.90;33.06;94345.56;6230344;27;109367;-64
2023/04/15 03:43:35;;;;;;;5.27;4.77;;;;;;;20.92;33.05;94358.56;6233096;27;111813;-67
2023/04/15 03:46:38;;;;;;;5.00;4.60;;;;;;;20.93;33.04;94370.75;6224639;27;108942;-68
2023/04/15 03:49:41;;;;;;;4.87;4.47;;;;;;;20.90;33.37;94368.72;6228873;28;108792;-60
2023/04/15 03:52:44;;;;;;;5.43;4.93;;;;;;;20.87;33.26;94387.97;6206193;27;109269;-61
2023/04/15 03:55:47;;;;;;;5.50;5.10;;;;;;;20.85;33.14;94377.66;6216313;28;108965;-66
2023/04/15 03:58:52;;;;;;;5.33;4.83;;;;;;;20.82;33.04;94382.78;6231454;28;108902;-62
2023/04/15 04:01:55;;;;;;;5.47;4.90;;;;;;;20.80;33.34;94372.47;6216058;27;108877;-66
2023/04/15 04:04:58;;;;;;;5.63;5.10;;;;;;;20.80;33.25;94377.78;6212630;28;108952;-61
2023/04/15 04:08:01;;;;;;;4.87;4.40;;;;;;;20.81;33.10;94373.25;6211544;28;108975;-60
2023/04/15 04:11:05;;;;;;;4.27;3.93;;;;;;;20.80;33.08;94388.44;6211077;28;108989;-61
2023/04/15 04:14:09;;;;;;;4.93;4.53;;;;;;;20.78;32.94;94398.59;6206126;28;109024;-61
2023/04/15 04:17:12;;;;;;;4.70;4.30;;;;;;;20.78;33.14;94385.31;6210202;27;109883;-61
2023/04/15 04:20:16;;;;;;;5.10;4.70;;;;;;;20.78;33.47;94384.53;6227234;28;108891;-60
2023/04/15 04:23:19;;;;;;;4.77;4.37;;;;;;;20.75;33.05;94398.44;6235381;28;108919;-60
2023/04/15 04:26:22;;;;;;;4.77;4.37;;;;;;;20.77;33.13;94397.03;6211782;27;109059;-60
2023/04/15 04:29:27;;;;;;;4.83;4.37;;;;;;;20.78;32.91;94384.53;6209972;28;108983;-60
2023/04/15 04:32:30;;;;;;;4.30;4.00;;;;;;;20.77;33.17;94386.41;6217194;28;109014;-60
2023/04/15 04:35:36;;;;;;;5.03;4.63;;;;;;;20.75;32.85;94396.56;6224574;27;108937;-60
2023/04/15 04:38:39;;;;;;;4.90;4.50;;;;;;;20.75;33.32;94398.44;6203359;27;109531;-61
2023/04/15 04:41:42;;;;;;;4.87;4.47;;;;;;;20.76;33.15;94398.13;6211130;28;108918;-60
2023/04/15 04:44:47;;;;;;;4.60;4.20;;;;;;;20.78;33.21;94406.56;6225594;28;109029;-59
2023/04/15 04:47:50;;;;;;;4.23;3.90;;;;;;;20.80;33.21;94406.25;6220918;27;109060;-66
2023/04/15 04:50:53;;;;;;;4.93;4.03;;;;;;;20.85;33.08;94406.91;6202645;28;108893;-66
2023/04/15 04:53:56;;;;;;;4.70;4.30;;;;;;;20.88;33.46;94411.59;6209977;28;108936;-66
2023/04/15 04:57:00;;;;;;;5.00;4.00;;;;;;;20.90;33.74;94409.41;6218631;28;108927;-66
2023/04/15 05:00:07;;;;;;;4.53;3.70;;;;;;;20.92;33.54;94415.19;6224538;28;109738;-67
2023/04/15 05:03:10;;;;;;;4.40;4.00;;;;;;;20.93;33.66;94415.97;6220486;27;109095;-67
2023/04/15 05:06:14;;;;;;;4.87;3.90;;;;;;;20.90;33.74;94422.69;6221308;28;108836;-66
2023/04/15 05:09:17;;;;;;;5.30;4.67;;;;;;;20.90;33.96;94435.22;6208421;28;109094;-66
2023/04/15 05:12:21;;;;;;;4.47;4.07;;;;;;;20.87;33.97;94441.16;6203534;28;108920;-66
2023/04/15 05:15:25;;;;;;;4.83;4.30;;;;;;;20.90;33.73;94448.50;6227163;27;108966;-66
2023/04/15 05:18:28;;;;;;;4.30;3.90;;;;;;;20.89;33.83;94461.03;6213316;28;108983;-67
2023/04/15 05:21:31;;;;;;;5.23;4.77;;;;;;;20.85;33.80;94457.44;6225661;28;109247;-67
2023/04/15 05:24:34;;;;;;;5.33;4.70;;;;;;;20.85;33.82;94451.34;6214714;27;108906;-67
2023/04/15 05:27:38;;;;;;;5.80;4.70;;;;;;;20.85;33.90;94454.00;6219671;28;109019;-71
2023/04/15 05:30:42;;;;;;;5.20;4.70;;;;;;;20.87;33.77;94468.53;6224486;28;109129;-64
2023/04/15 05:33:46;;;;;;;5.27;4.87;;;;;;;20.83;33.82;94458.81;6218076;28;109801;-64
2023/04/15 05:36:49;;;;;;;4.97;4.57;;;;;;;20.84;34.01;94457.75;6211638;27;109144;-65
2023/04/15 05:39:52;;;;;;;4.93;4.53;;;;;;;20.85;33.84;94449.44;6228091;27;108982;-66
2023/04/15 05:42:55;;;;;;;6.00;4.87;;;;;;;20.89;33.86;94449.59;6232956;27;108970;-66
2023/04/15 05:46:00;;;;;;;4.57;4.17;;;;;;;21.01;33.68;94457.75;6217368;28;110006;-64
2023/04/15 05:49:03;;;;;;;5.10;4.70;;;;;;;21.10;33.52;94452.44;6226394;28;108985;-66
2023/04/15 05:52:06;;;;;;;5.50;5.00;;;;;;;21.16;33.21;94462.63;6225250;28;108978;-66
2023/04/15 05:55:10;;;;;;;5.50;5.00;;;;;;;21.23;33.29;94459.50;6225286;28;109004;-66
2023/04/15 05:58:13;;;;;;;5.60;4.67;;;;;;;21.25;33.45;94451.97;6217443;27;108956;-65
2023/04/15 06:01:18;;;;;;;6.37;4.50;;;;;;;21.11;32.27;94467.31;6228169;28;108873;-66
2023/04/15 06:04:21;;;;;;;6.27;5.67;;;;;;;19.54;34.26;94473.19;6224454;28;108873;-66
2023/04/15 06:07:25;;;;;;;5.53;5.03;;;;;;;19.49;34.30;94475.97;6217986;28;108829;-67
2023/04/15 06:10:28;;;;;;;5.70;4.93;;;;;;;19.72;34.17;94472.19;6215540;27;111622;-64
2023/04/15 06:13:31;;;;;;;6.20;5.53;;;;;;;19.75;34.56;94472.66;6235369;27;108875;-68
2023/04/15 06:16:36;;;;;;;5.10;4.60;;;;;;;20.53;34.33;94469.25;6216434;28;109034;-62
2023/04/15 06:19:39;;;;;;;6.43;4.50;;;;;;;20.85;34.30;94470.72;6219454;28;109065;-63
2023/04/15 06:22:43;;;;;;;5.53;4.20;;;;;;;20.75;33.94;94468.34;6227068;27;108980;-64
2023/04/15 06:25:46;;;;;;;5.63;4.50;;;;;;;20.72;33.79;94476.97;6230742;27;108846;-63
2023/04/15 06:28:49;;;;;;;4.80;3.60;;;;;;;20.70;34.42;94481.81;6235182;27;109046;-64
2023/04/15 06:31:55;;;;;;;5.83;3.77;;;;;;;20.81;33.53;94471.63;6217196;28;109137;-64
2023/04/15 06:34:58;;;;;;;4.00;3.60;;;;;;;20.77;33.25;94474.16;6231606;27;109442;-63
2023/04/15 06:38:01;;;;;;;5.60;3.40;;;;;;;20.75;32.57;94478.22;6229812;27;108969;-63
2023/04/15 06:41:04;;;;;;;4.37;2.90;;;;;;;20.72;32.05;94492.91;6217426;27;108835;-64
2023/04/15 06:44:07;;;;;;;4.20;3.00;;;;;;;20.79;31.83;94493.22;6209625;28;109087;-64
2023/04/15 06:47:13;;;;;;;5.07;2.83;;;;;;;20.92;32.47;94497.63;6222225;28;108917;-61
2023/04/15 06:50:16;;;;;;;4.47;3.37;;;;;;;21.02;32.53;94501.09;6225882;27;108970;-61
2023/04/15 06:53:19;;;;;;;4.37;3.07;;;;;;;21.19;32.36;94504.59;6207326;28;109074;-61
2023/04/15 06:56:22;;;;;;;8.00;4.10;;;;;;;21.19;33.75;94509.13;6208994;28;108996;-61
2023/04/15 06:59:26;;;;;;;5.90;3.20;;;;;;;21.16;33.54;94505.19;6212554;28;108900;-62
2023/04/15 07:02:30;;;;;;;5.97;3.57;;;;;;;21.15;33.97;94516.13;6219648;28;108966;-61
2023/04/15 07:05:33;;;;;;;5.13;2.90;;;;;;;21.29;33.72;94511.44;6201596;28;109049;-61
2023/04/15 07:08:36;;;;;;;5.23;3.20;;;;;;;21.38;34.37;94519.44;6211888;28;108937;-60
2023/04/15 07:11:39;;;;;;;5.33;2.80;;;;;;;21.42;33.74;94515.84;6222368;28;110431;-61
2023/04/15 07:14:43;;;;;;;8.40;3.20;;;;;;;21.45;33.77;94509.88;6213841;28;111013;-60
2023/04/15 07:17:47;;;;;;;6.00;3.60;;;;;;;21.45;33.75;94514.44;6202047;28;109797;-61
2023/04/15 07:20:51;;;;;;;5.20;3.13;;;;;;;21.50;33.57;94516.91;6212880;28;108934;-60
2023/04/15 07:23:54;;;;;;;4.70;3.70;;;;;;;21.52;33.53;94506.75;6237471;27;109005;-61
2023/04/15 07:26:58;;;;;;;3.80;3.40;;;;;;;21.55;33.54;94506.13;6237135;27;108921;-61
2023/04/15 07:30:03;;;;;;;5.40;3.33;;;;;;;21.60;33.67;94505.19;6215591;27;109812;-60
2023/04/15 07:33:07;;;;;;;6.00;3.50;;;;;;;21.68;34.67;94517.72;6211020;28;108838;-60
2023/04/15 07:36:10;;;;;;;5.53;3.50;;;;;;;21.75;34.11;94521.44;6211887;28;109982;-61
2023/04/15 07:39:13;;;;;;;5.10;3.37;;;;;;;21.79;34.29;94513.59;6208859;28;108926;-60
2023/04/15 07:42:17;;;;;;;6.67;3.50;;;;;;;21.81;34.70;94512.19;6221803;27;108843;-61
2023/04/15 07:45:20;;;;;;;4.20;2.90;;;;;;;21.88;34.94;94514.41;6233447;27;108948;-65
2023/04/15 07:48:25;;;;;;;6.93;3.30;;;;;;;21.87;35.03;94509.41;6236542;27;108869;-60
2023/04/15 07:51:28;;;;;;;4.13;2.83;;;;;;;21.85;34.92;94523.03;6225777;27;108890;-61
2023/04/15 07:54:31;;;;;;;3.80;2.60;;;;;;;21.86;34.57;94529.16;6236732;27;108906;-60
2023/04/15 07:57:35;;;;;;;7.47;4.83;;;;;;;21.90;34.41;94525.53;6236683;27;108830;-60
2023/04/15 08:00:38;;;;;;;3.90;3.00;;;;;;;21.94;34.40;94529.13;6236176;27;108837;-61
2023/04/15 08:03:42;;;;;;;6.87;3.40;;;;;;;21.98;34.19;94538.03;6207099;27;109115;-61
2023/04/15 08:06:48;;;;;;;4.47;3.30;;;;;;;21.98;33.92;94535.38;6211433;28;108889;-61
2023/04/15 08:09:51;;;;;;;3.73;2.80;;;;;;;22.00;34.32;94535.84;6211239;28;109000;-66
2023/04/15 08:12:55;;;;;;;6.00;4.07;;;;;;;21.97;34.03;94535.69;6207579;28;110065;-67
2023/04/15 08:16:15;;;;;;;6.40;3.73;;;;;;;21.97;34.87;94533.81;6205251;28;108934;-68
2023/04/15 08:19:20;;;;;;;4.53;3.57;;;;;;;21.98;34.88;94527.38;6211414;28;109057;-60
2023/04/15 08:22:23;;;;;;;5.90;3.70;;;;;;;22.05;34.57;94524.25;6211204;28;108911;-61
2023/04/15 08:25:27;;;;;;;5.20;3.40;;;;;;;22.11;34.35;94521.09;6201331;28;109774;-60
2023/04/15 08:28:30;;;;;;;4.40;3.47;;;;;;;22.16;33.89;94522.00;6211046;28;108928;-60
2023/04/15 08:31:33;;;;;;;3.50;3.20;;;;;;;22.19;34.05;94526.72;6210931;28;109011;-60
2023/04/15 08:34:38;;;;;;;3.80;3.50;;;;;;;22.23;33.62;94517.75;6210133;28;109046;-62
2023/04/15 08:37:41;;;;;;;3.17;2.87;;;;;;;22.23;33.58;94511.66;6199660;28;108894;-60
2023/04/15 08:40:45;;;;;;;6.50;3.50;;;;;;;22.27;33.45;94512.56;6210644;28;109004;-60
2023/04/15 08:43:53;;;;;;;4.20;3.90;;;;;;;22.30;32.82;94507.38;6210784;28;108874;-59
2023/04/15 08:46:57;;;;;;;4.53;4.10;;;;;;;22.32;33.53;94509.72;6205819;28;108759;-60
2023/04/15 08:50:04;;;;;;;4.60;4.00;;;;;;;22.33;32.85;94516.59;6210992;28;109331;-60
2023/04/15 08:53:07;;;;;;;4.80;4.40;;;;;;;22.23;33.27;94512.44;6210406;28;108976;-63
2023/04/15 08:56:14;;;;;;;3.77;3.30;;;;;;;22.18;32.82;94503.81;6220614;28;109258;-63
2023/04/15 08:59:17;;;;;;;5.13;3.70;;;;;;;22.18;33.87;94507.28;6222929;28;108884;-63
2023/04/15 09:02:22;;;;;;;12.57;4.10;;;;;;;22.19;34.40;94508.06;6215959;27;109091;-64
2023/04/15 09:05:26;;;;;;;10.70;4.60;;;;;;;22.20;35.16;94502.41;6217876;28;108779;-60
2023/04/15 09:08:29;;;;;;;4.83;4.33;;;;;;;22.22;35.30;94497.53;6228461;27;108963;-65
2023/04/15 09:11:33;;;;;;;6.40;4.30;;;;;;;22.20;35.67;94493.63;6202108;27;108905;-60
2023/04/15 09:14:36;;;;;;;15.73;5.80;;;;;;;22.18;35.10;94483.28;6210592;28;108823;-60
2023/04/15 09:17:42;;;;;;;11.70;5.70;;;;;;;22.18;35.38;94477.16;6188950;28;108967;-60
2023/04/15 09:20:47;;;;;;;9.37;5.77;;;;;;;22.18;35.87;94477.16;6215600;27;108939;-61
2023/04/15 09:23:58;;;;;;;6.70;5.33;;;;;;;22.16;35.97;94466.81;6203812;28;108935;-60
2023/04/15 09:27:02;;;;;;;10.87;6.07;;;;;;;22.14;36.81;94468.25;6218288;28;108950;-61
2023/04/15 09:30:09;;;;;;;6.40;5.10;;;;;;;22.16;36.44;94466.81;6210357;28;109102;-60
2023/04/15 09:33:15;;;;;;;9.43;5.50;;;;;;;22.16;36.87;94479.38;6200857;28;109101;-59
2023/04/15 09:36:19;;;;;;;8.03;4.60;;;;;;;22.19;37.40;94479.53;6210740;28;109067;-60
2023/04/15 09:39:23;;;;;;;7.40;4.10;;;;;;;22.15;36.98;94472.47;6204762;28;109102;-59
2023/04/15 09:42:27;;;;;;;6.30;2.63;;;;;;;22.08;35.13;94478.31;6210269;28;108958;-62
2023/04/15 09:45:31;;;;;;;2.73;2.00;;;;;;;22.02;35.04;94471.59;6200594;28;110055;-60
2023/04/15 09:48:34;;;;;;;2.40;1.70;;;;;;;22.00;34.23;94479.88;6209663;28;109177;-60
2023/04/15 09:51:39;;;;;;;4.13;1.80;;;;;;;21.94;33.31;94486.50;6209550;28;108957;-61
2023/04/15 09:54:45;;;;;;;3.77;1.70;;;;;;;21.93;33.54;94489.47;6219189;28;108917;-61
2023/04/15 09:57:48;;;;;;;4.00;2.37;;;;;;;21.96;33.47;94486.19;6193093;28;109062;-60
2023/04/15 10:00:53;;;;;;;3.30;2.77;;;;;;;22.00;33.44;94471.09;6216016;28;109650;-61
2023/04/15 10:03:58;;;;;;;4.20;2.23;;;;;;;22.01;34.26;94472.66;6201610;28;108904;-62
2023/04/15 10:07:04;;;;;;;2.40;2.20;;;;;;;22.00;34.17;94468.44;6223975;27;108890;-61
2023/04/15 10:10:09;;;;;;;3.37;1.70;;;;;;;21.99;34.59;94459.66;6222537;27;108887;-61
2023/04/15 10:13:14;;;;;;;2.00;1.83;;;;;;;22.00;34.36;94460.44;6228933;28;108952;-60
2023/04/15 10:16:20;;;;;;;2.97;2.70;;;;;;;21.99;34.64;94465.00;6238378;27;108881;-61
2023/04/15 10:19:27;;;;;;;3.60;2.67;;;;;;;21.97;35.25;94445.91;6222794;27;109015;-61
2023/04/15 10:22:32;;;;;;;2.37;2.17;;;;;;;21.95;35.49;94437.44;6214417;28;109005;-62
2023/04/15 10:25:36;;;;;;;4.17;2.77;;;;;;;21.95;35.68;94437.44;6238604;27;108883;-60
2023/04/15 10:28:39;;;;;;;2.63;2.20;;;;;;;21.96;35.33;94440.88;6219166;28;108851;-61
2023/04/15 10:31:43;;;;;;;2.87;2.67;;;;;;;21.97;35.84;94451.22;6200805;28;109235;-61
2023/04/15 10:34:48;;;;;;;2.30;2.10;;;;;;;21.95;35.35;94448.09;6209754;28;109012;-62
2023/04/15 10:37:53;;;;;;;2.33;2.13;;;;;;;21.96;35.46;94447.00;6212018;28;108912;-60
2023/04/15 10:41:13;;;;;;;2.00;1.90;;;;;;;21.97;35.22;94437.13;6208657;28;108984;-62
2023/04/15 10:44:16;;;;;;;2.73;2.53;;;;;;;21.98;35.04;94436.78;6223516;27;109057;-70
2023/04/15 10:47:20;;;;;;;8.50;2.70;;;;;;;22.01;35.44;94430.03;6213838;28;108500;-60
2023/04/15 10:50:27;;;;;;;4.03;1.87;;;;;;;22.02;35.52;94437.75;6218398;28;108975;-60
2023/04/15 10:53:32;;;;;;;6.77;2.40;;;;;;;22.03;35.82;94430.53;6201826;28;108902;-61
2023/04/15 10:56:35;;;;;;;6.93;2.87;;;;;;;22.03;35.34;94423.31;6227193;28;108949;-62
2023/04/15 10:59:59;;;;;;;5.37;1.80;;;;;;;22.05;35.11;94426.44;6222390;27;108838;-62
2023/04/15 11:03:06;;;;;;;5.03;2.30;;;;;;;22.05;35.53;94426.44;6225603;28;109154;-61
2023/04/15 11:06:10;;;;;;;4.53;1.90;;;;;;;22.02;35.44;94427.09;6209203;27;108994;-60
2023/04/15 11:09:32;;;;;;;4.30;2.40;;;;;;;22.03;36.25;94427.88;6210874;28;108998;-60
2023/04/15 11:12:35;;;;;;;3.13;2.40;;;;;;;22.04;35.97;94430.22;6212697;28;108694;-61
2023/04/15 11:15:40;;;;;;;5.17;2.67;;;;;;;22.05;36.34;94423.00;6202343;28;109760;-63
2023/04/15 11:18:54;;;;;;;4.87;3.30;;;;;;;22.08;36.30;94428.47;6225915;28;108935;-62
2023/04/15 11:21:57;;;;;;;5.10;3.10;;;;;;;22.18;36.66;94421.19;6210141;28;109200;-62
2023/04/15 11:25:02;;;;;;;3.73;3.10;;;;;;;22.14;36.26;94429.06;6219880;28;109381;-64
2023/04/15 11:28:06;;;;;;;8.90;3.43;;;;;;;22.13;35.47;94422.16;6202547;28;110764;-61
2023/04/15 11:31:13;;;;;;;3.07;2.37;;;;;;;22.14;35.11;94422.94;6211371;28;108916;-66
2023/04/15 11:34:23;;;;;;;5.10;2.60;;;;;;;22.12;34.58;94425.94;6211965;28;108911;-62
2023/04/15 11:37:30;;;;;;;4.30;2.20;;;;;;;22.11;34.44;94419.81;6207010;28;108909;-60
2023/04/15 11:40:35;;;;;;;2.40;2.03;;;;;;;22.14;33.65;94421.06;6205448;28;108892;-61
2023/04/15 11:43:38;;;;;;;1.93;1.60;;;;;;;22.14;33.79;94420.28;6211132;28;108937;-61
2023/04/15 11:46:41;;;;;;;2.47;1.70;;;;;;;22.11;33.83;94406.50;6225131;28;108812;-60
2023/04/15 11:49:47;;;;;;;4.47;2.07;;;;;;;22.17;33.84;94408.97;6222445;28;108905;-61
2023/04/15 11:52:54;;;;;;;3.20;2.87;;;;;;;22.16;33.39;94410.06;6228652;27;108936;-61
2023/04/15 11:55:58;;;;;;;4.40;3.07;;;;;;;22.18;33.59;94407.88;6223828;28;108962;-61
2023/04/15 11:59:01;;;;;;;4.10;3.70;;;;;;;22.15;33.65;94401.31;6219331;28;108857;-61
2023/04/15 12:02:12;;;;;;;3.83;3.47;;;;;;;22.13;33.85;94400.84;6201525;28;109108;-60
2023/04/15 12:05:15;;;;;;;4.30;3.90;;;;;;;22.12;33.74;94393.97;6209834;28;109172;-60
2023/04/15 12:08:18;;;;;;;4.43;3.80;;;;;;;22.10;33.95;94386.28;6211091;28;108919;-60
2023/04/15 12:11:29;;;;;;;4.23;3.83;;;;;;;22.11;33.96;94392.41;6206529;28;109051;-60
2023/04/15 12:14:33;;;;;;;4.90;4.37;;;;;;;22.13;34.11;94389.41;6208752;28;108928;-60
2023/04/15 12:17:36;;;;;;;4.20;3.80;;;;;;;22.11;33.83;94392.41;6234395;27;108879;-60
2023/04/15 12:20:54;;;;;;;4.70;4.23;;;;;;;22.08;33.58;94398.38;6236267;27;108841;-60
2023/04/15 12:23:58;;;;;;;4.27;3.87;;;;;;;22.06;33.86;94398.69;6224918;28;109079;-60
2023/04/15 12:27:06;;;;;;;4.10;3.80;;;;;;;22.04;33.93;94398.25;6235893;27;108855;-61
2023/04/15 12:30:10;;;;;;;4.03;3.63;;;;;;;22.04;33.78;94395.56;6213523;27;108865;-61
2023/04/15 12:33:13;;;;;;;3.77;3.47;;;;;;;22.02;33.30;94395.13;6211299;28;108967;-61
2023/04/15 12:36:16;;;;;;;3.73;3.13;;;;;;;22.03;32.95;94403.88;6200178;28;109371;-60
2023/04/15 12:39:22;;;;;;;3.60;3.30;;;;;;;22.03;32.85;94412.66;6234201;28;108928;-61
2023/04/15 12:42:27;;;;;;;2.50;2.30;;;;;;;22.03;32.58;94410.00;6185132;28;108884;-62
2023/04/15 12:45:30;;;;;;;2.90;2.30;;;;;;;22.02;32.48;94413.75;6181308;28;108858;-61
2023/04/15 12:48:33;;;;;;;2.97;2.10;;;;;;;22.06;31.88;94412.03;6198145;28;109975;-60
2023/04/15 12:51:36;;;;;;;2.43;1.83;;;;;;;22.09;31.60;94421.25;6218113;28;108927;-61
2023/04/15 12:54:39;;;;;;;2.53;1.87;;;;;;;22.08;31.52;94417.03;6225947;27;108963;-68
2023/04/15 12:57:44;;;;;;;1.90;1.70;;;;;;;22.04;31.49;94421.44;6196965;28;109905;-69
2023/04/15 13:00:47;;;;;;;1.90;1.57;;;;;;;22.01;31.19;94414.88;6216370;28;109328;-69
2023/04/15 13:03:50;;;;;;;1.77;1.67;;;;;;;22.01;30.68;94409.53;6219766;27;108922;-63
2023/04/15 13:06:55;;;;;;;2.80;1.70;;;;;;;22.02;30.61;94412.97;6209818;28;108902;-63
2023/04/15 13:09:58;;;;;;;2.00;1.77;;;;;;;21.98;30.60;94407.50;6199227;28;108972;-63
2023/04/15 13:13:02;;;;;;;1.57;1.47;;;;;;;21.98;30.38;94415.47;6208260;28;108979;-62
2023/04/15 13:16:06;;;;;;;2.00;1.10;;;;;;;21.86;30.01;94407.41;6221642;28;108974;-63
2023/04/15 13:19:09;;;;;;;0.87;0.70;;;;;;;21.82;27.81;94406.47;6226704;27;108830;-63
2023/04/15 13:22:13;;;;;;;1.07;0.97;;;;;;;21.88;29.34;94404.41;6209026;27;108940;-63
2023/04/15 13:25:16;;;;;;;1.90;0.70;;;;;;;21.97;28.98;94399.81;6209938;28;109134;-67
2023/04/15 13:28:21;;;;;;;2.13;1.10;;;;;;;22.03;29.13;94412.66;6211484;28;108929;-63
2023/04/15 13:31:24;;;;;;;2.23;1.20;;;;;;;22.04;29.19;94398.25;6205886;28;108974;-64
2023/04/15 13:34:27;;;;;;;1.10;1.00;;;;;;;22.07;29.01;94394.94;6216733;28;108853;-63
2023/04/15 13:37:30;;;;;;;2.27;1.00;;;;;;;22.05;28.78;94399.78;6237191;27;108881;-61
2023/04/15 13:40:33;;;;;;;2.73;0.87;;;;;;;22.05;29.16;94394.47;6227398;27;108953;-63
2023/04/15 13:43:38;;;;;;;3.60;1.10;;;;;;;22.06;29.85;94397.91;6217831;27;108929;-62
2023/04/15 13:46:41;;;;;;;3.97;1.33;;;;;;;22.10;29.68;94396.16;6219017;28;108955;-64
2023/04/15 13:49:44;;;;;;;4.90;1.30;;;;;;;22.13;30.26;94397.41;6216427;28;108976;-63
2023/04/15 13:52:47;;;;;;;8.43;1.27;;;;;;;22.06;29.72;94395.25;6217010;28;108995;-63
2023/04/15 13:55:50;;;;;;;7.90;1.20;;;;;;;21.95;29.52;94394.03;6216156;28;109083;-63
2023/04/15 13:58:57;;;;;;;10.63;1.70;;;;;;;21.94;30.45;94390.59;6216800;28;108888;-62
2023/04/15 14:02:00;;;;;;;11.27;1.47;;;;;;;21.95;29.93;94388.72;6215306;28;108904;-63
2023/04/15 14:05:04;;;;;;;7.23;1.50;;;;;;;21.96;29.67;94388.38;6211653;28;108888;-64
2023/04/15 14:08:07;;;;;;;5.10;1.60;;;;;;;21.97;29.56;94392.59;6227921;28;109035;-64
2023/04/15 14:11:10;;;;;;;6.10;1.50;;;;;;;21.96;29.12;94390.28;6234756;28;109056;-63
2023/04/15 14:14:15;;;;;;;7.90;1.50;;;;;;;21.97;29.64;94387.28;6199560;28;108879;-63
2023/04/15 14:17:18;;;;;;;10.67;1.80;;;;;;;21.97;29.42;94383.84;6202974;28;108872;-62